createdAt,value
2023-04-06T00:02:00.824Z,12.74
2023-04-06T00:07:19.848Z,12.74
2023-04-06T00:12:38.779Z,12.74
2023-04-06T00:17:58.167Z,12.73
2023-04-06T00:23:17.201Z,12.73
2023-04-06T00:28:36.094Z,12.73
2023-04-06T00:33:55.564Z,12.72
2023-04-06T00:39:15.110Z,12.72
2023-04-06T00:44:34.380Z,12.72
2023-04-06T00:49:54.194Z,12.72
2023-04-06T00:55:13.919Z,12.72
2023-04-06T01:00:33.605Z,12.72
2023-04-06T01:05:52.987Z,12.71
2023-04-06T01:11:12.100Z,12.71
2023-04-06T01:16:31.136Z,12.71
2023-04-06T01:21:50.793Z,12.7
2023-04-06T01:27:09.713Z,12.71
2023-04-06T01:32:28.891Z,12.7
2023-04-06T01:37:47.904Z,12.7
2023-04-06T01:43:07.450Z,12.69
2023-04-06T01:48:26.632Z,12.68
2023-04-06T01:53:46.407Z,12.69
2023-04-06T01:59:05.720Z,12.69
2023-04-06T02:04:25.317Z,12.69
2023-04-06T02:09:44.673Z,12.68
2023-04-06T02:15:03.868Z,12.68
2023-04-06T02:20:23.216Z,12.68
2023-04-06T02:25:42.159Z,12.68
2023-04-06T02:31:01.122Z,12.67
2023-04-06T02:36:20.721Z,12.68
2023-04-06T02:46:59.630Z,12.66
2023-04-06T02:52:19.056Z,12.66
2023-04-06T02:57:38.419Z,12.66
2023-04-06T03:02:58.181Z,12.66
2023-04-06T03:08:17.738Z,12.65
2023-04-06T03:13:37.038Z,12.65
2023-04-06T03:18:56.578Z,12.64
2023-04-06T03:24:15.450Z,12.64
2023-04-06T03:29:34.633Z,12.64
2023-04-06T03:34:54.441Z,12.64
2023-04-06T03:40:14.138Z,12.63
2023-04-06T03:45:33.155Z,12.63
2023-04-06T03:50:52.431Z,12.63
2023-04-06T03:56:11.840Z,12.63
2023-04-06T04:01:31.070Z,12.62
2023-04-06T04:06:49.919Z,12.62
2023-04-06T04:12:09.338Z,12.62
2023-04-06T04:17:28.374Z,12.61
2023-04-06T04:22:47.859Z,12.61
2023-04-06T04:28:06.767Z,12.61
2023-04-06T04:33:25.808Z,12.61
2023-04-06T04:38:45.354Z,12.6
2023-04-06T04:44:04.760Z,12.6
2023-04-06T04:49:23.941Z,12.59
2023-04-06T05:00:02.518Z,12.6
2023-04-06T05:05:22.188Z,12.62
2023-04-06T05:10:41.836Z,12.63
2023-04-06T05:16:01.681Z,12.65
2023-04-06T05:21:21.046Z,12.68
2023-04-06T05:26:40.196Z,12.7
2023-04-06T05:31:59.540Z,12.73
2023-04-06T05:37:19.360Z,12.77
2023-04-06T05:42:38.304Z,12.82
2023-04-06T05:47:58.122Z,12.86
2023-04-06T05:53:17.566Z,12.92
2023-04-06T05:58:36.655Z,13.01
2023-04-06T06:03:56.102Z,13.13
2023-04-06T06:09:14.959Z,13.27
2023-04-06T06:14:34.609Z,13.47
2023-04-06T06:19:54.391Z,13.69
2023-04-06T06:25:13.746Z,13.92
2023-04-06T06:30:33.230Z,14.16
2023-04-06T06:35:52.519Z,14.34
2023-04-06T06:41:11.505Z,14.36
2023-04-06T06:46:30.734Z,14.36
2023-04-06T06:51:49.982Z,14.35
2023-04-06T06:57:08.883Z,14.36
2023-04-06T07:02:28.470Z,14.36
2023-04-06T07:07:47.595Z,14.33
2023-04-06T07:13:06.943Z,14.36
2023-04-06T07:18:26.479Z,14.36
2023-04-06T07:23:46.066Z,14.36
2023-04-06T07:29:05.456Z,14.37
2023-04-06T07:34:24.884Z,14.38
2023-04-06T07:39:44.581Z,14.39
2023-04-06T07:45:03.946Z,14.39
2023-04-06T07:50:23.281Z,14.38
2023-04-06T07:55:42.217Z,14.42
2023-04-06T08:01:01.648Z,14.38
2023-04-06T08:06:20.937Z,14.38
2023-04-06T08:11:39.876Z,14.43
2023-04-06T08:16:58.732Z,14.38
2023-04-06T08:22:18.100Z,14.4
2023-04-06T08:27:37.008Z,14.39
2023-04-06T08:32:55.874Z,14.4
2023-04-06T08:38:15.244Z,14.44
2023-04-06T08:43:34.164Z,14.39
2023-04-06T08:48:52.757Z,14.39
2023-04-06T08:54:12.331Z,14.4
2023-04-06T08:59:31.328Z,14.39
2023-04-06T09:04:50.142Z,14.4
2023-04-06T09:10:08.825Z,14.4
2023-04-06T09:15:28.033Z,14.39
2023-04-06T09:20:47.134Z,14.4
2023-04-06T09:26:06.447Z,14.45
2023-04-06T09:31:25.776Z,14.39
2023-04-06T09:36:45.071Z,14.42
2023-04-06T09:42:04.542Z,14.4
2023-04-06T09:47:23.562Z,14.4
2023-04-06T09:52:42.992Z,14.4
2023-04-06T09:58:01.885Z,14.39
2023-04-06T10:03:21.296Z,14.39
2023-04-06T10:08:40.102Z,14.41
2023-04-06T10:19:18.952Z,14.4
2023-04-06T10:24:38.095Z,14.4
2023-04-06T10:29:57.504Z,14.4
2023-04-06T10:35:16.642Z,14.4
2023-04-06T10:40:36.003Z,14.39
2023-04-06T10:45:55.450Z,14.49
2023-04-06T10:51:14.367Z,14.39
2023-04-06T10:56:33.861Z,14.42
2023-04-06T11:01:53.432Z,14.42
2023-04-06T11:07:12.969Z,14.4
2023-04-06T11:12:32.367Z,14.41
2023-04-06T11:17:51.190Z,14.39
2023-04-06T11:23:09.959Z,14.4
2023-04-06T11:28:29.133Z,14.4
2023-04-06T11:33:48.765Z,14.39
2023-04-06T11:39:08.196Z,14.39
2023-04-06T11:44:27.235Z,14.39
2023-04-06T11:49:46.742Z,14.48
2023-04-06T11:55:05.662Z,14.42
2023-04-06T12:00:24.618Z,14.39
2023-04-06T12:05:43.423Z,14.38
2023-04-06T12:11:03.123Z,14.43
2023-04-06T12:16:22.778Z,14.4
2023-04-06T12:21:41.769Z,14.39
2023-04-06T12:27:09.099Z,14.4
2023-04-06T12:32:20.690Z,14.42
2023-04-06T12:37:39.716Z,14.4
2023-04-06T12:42:58.472Z,14.41
2023-04-06T12:48:18.036Z,14.39
2023-04-06T12:53:37.481Z,14.4
2023-04-06T12:58:56.030Z,14.4
2023-04-06T13:04:15.282Z,14.41
2023-04-06T13:09:34.902Z,14.39
2023-04-06T13:14:54.204Z,14.39
2023-04-06T13:20:13.842Z,14.39
2023-04-06T13:25:32.960Z,14.4
2023-04-06T13:30:51.977Z,14.39
2023-04-06T13:36:10.923Z,14.39
2023-04-06T13:41:30.499Z,14.38
2023-04-06T13:46:49.995Z,14.39
2023-04-06T13:52:09.673Z,14.38
2023-04-06T13:57:37.280Z,14.39
2023-04-06T14:02:48.257Z,14.39
2023-04-06T14:08:07.821Z,14.4
2023-04-06T14:13:26.526Z,14.39
2023-04-06T14:18:55.621Z,14.39
2023-04-06T14:24:04.307Z,14.4
2023-04-06T14:29:23.441Z,14.39
2023-04-06T14:34:42.313Z,14.39
2023-04-06T14:40:01.809Z,14.41
2023-04-06T14:45:21.213Z,14.4
2023-04-06T14:50:40.579Z,14.4
2023-04-06T15:01:18.652Z,14.4
2023-04-06T15:11:57.244Z,14.4
2023-04-06T15:17:16.177Z,14.39
2023-04-06T15:22:34.936Z,14.39
2023-04-06T15:27:54.039Z,14.4
2023-04-06T15:33:13.741Z,14.39
2023-04-06T15:38:32.828Z,14.4
2023-04-06T15:43:51.507Z,14.39
2023-04-06T15:49:11.068Z,14.39
2023-04-06T15:54:29.931Z,14.41
2023-04-06T15:59:48.832Z,14.39
2023-04-06T16:05:07.599Z,14.39
2023-04-06T16:10:26.899Z,14.38
2023-04-06T16:15:45.816Z,14.39
2023-04-06T16:21:04.885Z,14.39
2023-04-06T16:26:24.310Z,14.4
2023-04-06T16:31:43.880Z,14.39
2023-04-06T16:37:02.677Z,14.39
2023-04-06T16:42:21.624Z,14.38
2023-04-06T16:47:41.154Z,14.38
2023-04-06T16:53:00.232Z,14.38
2023-04-06T16:58:19.409Z,14.38
2023-04-06T17:03:39.166Z,14.38
2023-04-06T17:08:58.515Z,14.39
2023-04-06T17:14:17.607Z,14.38
2023-04-06T17:19:37.012Z,13.74
2023-04-06T17:24:56.547Z,13.21
2023-04-06T17:30:17.125Z,13.13
2023-04-06T17:35:35.140Z,13.08
2023-04-06T17:41:29.231Z,12.99
2023-04-06T17:46:48.123Z,12.94
2023-04-06T17:52:07.837Z,12.92
2023-04-06T17:57:27.161Z,12.9
2023-04-06T18:02:45.997Z,12.9
2023-04-06T18:08:05.740Z,12.89
2023-04-06T18:13:25.215Z,12.88
2023-04-06T18:18:44.512Z,12.88
2023-04-06T18:24:04.717Z,12.88
2023-04-06T18:29:22.665Z,12.87
2023-04-06T18:34:42.126Z,12.87
2023-04-06T18:40:00.708Z,12.86
2023-04-06T18:45:20.156Z,12.87
2023-04-06T18:50:39.637Z,12.86
2023-04-06T18:55:59.308Z,12.87
2023-04-06T19:01:18.135Z,12.86
2023-04-06T19:06:37.097Z,12.86
2023-04-06T19:11:56.784Z,12.86
2023-04-06T19:17:15.676Z,12.86
2023-04-06T19:22:35.417Z,12.86
2023-04-06T19:27:54.641Z,12.85
2023-04-06T19:33:13.542Z,12.85
2023-04-06T19:38:33.318Z,12.85
2023-04-06T19:43:52.687Z,12.84
2023-04-06T19:49:12.224Z,12.84
2023-04-06T19:54:31.376Z,12.84
2023-04-06T19:59:51.096Z,12.84
2023-04-06T20:05:10.507Z,12.84
2023-04-06T20:10:30.183Z,12.84
2023-04-06T20:15:49.375Z,12.84
2023-04-06T20:21:09.878Z,12.84
2023-04-06T20:31:48.082Z,12.83
2023-04-06T20:37:07.099Z,12.83
2023-04-06T20:42:26.738Z,12.83
2023-04-06T20:47:45.786Z,12.82
2023-04-06T20:53:04.694Z,12.83
2023-04-06T20:58:24.288Z,12.83
2023-04-06T21:03:43.404Z,12.82
2023-04-06T21:09:02.946Z,12.83
2023-04-06T21:14:22.518Z,12.82
2023-04-06T21:19:41.308Z,12.82
2023-04-06T21:25:00.699Z,12.82
2023-04-06T21:30:20.275Z,12.82
2023-04-06T21:35:39.755Z,12.82
2023-04-06T21:40:59.219Z,12.82
2023-04-06T21:46:18.903Z,12.82
2023-04-06T21:51:38.509Z,12.81
2023-04-06T21:56:57.419Z,12.82
2023-04-06T22:02:16.405Z,12.82
2023-04-06T22:07:35.492Z,12.82
2023-04-06T22:12:54.431Z,12.81
2023-04-06T22:18:13.695Z,12.81
2023-04-06T22:23:33.330Z,12.81
2023-04-06T22:28:52.926Z,12.81
2023-04-06T22:34:13.039Z,12.81
2023-04-06T22:39:32.421Z,12.8
2023-04-06T22:44:51.854Z,12.8
2023-04-06T22:50:11.308Z,12.81
2023-04-06T22:55:30.768Z,12.8
2023-04-06T23:00:49.982Z,12.8
2023-04-06T23:06:09.035Z,12.8
2023-04-06T23:11:28.464Z,12.8
2023-04-06T23:16:47.391Z,12.81
2023-04-06T23:22:06.516Z,12.8
2023-04-06T23:27:26.033Z,12.8
2023-04-06T23:32:45.683Z,12.8
2023-04-06T23:38:04.202Z,12.8
2023-04-06T23:43:23.933Z,12.79
2023-04-06T23:48:43.160Z,12.8
2023-04-06T23:54:02.549Z,12.8
2023-04-06T23:59:21.328Z,12.79
